sensor_id;sensor_type;location;lat;lon;timestamp;P1;durP1;ratioP1;P2;durP2;ratioP2
37379;SDS011;23252;-33.992;18.480;2023-02-24T00:01:50;14.45;;;2.00;;
37379;SDS011;23252;-33.992;18.480;2023-02-24T00:04:30;7.05;;;1.17;;
37379;SDS011;23252;-33.992;18.480;2023-02-24T00:07:02;7.78;;;1.70;;
37379;SDS011;23252;-33.992;18.480;2023-02-24T00:09:29;8.23;;;1.75;;
37379;SDS011;23252;-33.992;18.480;2023-02-24T00:12:01;11.13;;;1.50;;
37379;SDS011;23252;-33.992;18.480;2023-02-24T02:42:56;6.97;;;1.25;;
37379;SDS011;23252;-33.992;18.480;2023-02-24T02:51:05;7.68;;;1.80;;
37379;SDS011;23252;-33.992;18.480;2023-02-24T02:56:15;9.70;;;1.40;;
37379;SDS011;23252;-33.992;18.480;2023-02-24T02:58:52;11.38;;;1.63;;
37379;SDS011;23252;-33.992;18.480;2023-02-24T03:01:22;11.82;;;1.48;;
37379;SDS011;23252;-33.992;18.480;2023-02-24T03:03:53;6.00;;;1.23;;
37379;SDS011;23252;-33.992;18.480;2023-02-24T03:06:36;5.03;;;1.20;;
37379;SDS011;23252;-33.992;18.480;2023-02-24T03:09:19;7.30;;;1.73;;
37379;SDS011;23252;-33.992;18.480;2023-02-24T03:12:02;8.02;;;1.55;;
37379;SDS011;23252;-33.992;18.480;2023-02-24T03:14:34;8.48;;;1.70;;
37379;SDS011;23252;-33.992;18.480;2023-02-24T03:17:16;7.75;;;1.80;;
37379;SDS011;23252;-33.992;18.480;2023-02-24T03:19:50;6.38;;;1.45;;
37379;SDS011;23252;-33.992;18.480;2023-02-24T03:22:32;6.70;;;2.00;;
37379;SDS011;23252;-33.992;18.480;2023-02-24T03:25:03;10.25;;;1.77;;
37379;SDS011;23252;-33.992;18.480;2023-02-24T03:27:33;9.13;;;2.15;;
37379;SDS011;23252;-33.992;18.480;2023-02-24T03:32:56;13.30;;;1.90;;
37379;SDS011;23252;-33.992;18.480;2023-02-24T03:35:42;7.45;;;1.42;;
37379;SDS011;23252;-33.992;18.480;2023-02-24T03:38:09;9.55;;;2.00;;
37379;SDS011;23252;-33.992;18.480;2023-02-24T03:40:38;10.52;;;2.35;;
37379;SDS011;23252;-33.992;18.480;2023-02-24T03:43:22;6.60;;;1.40;;
37379;SDS011;23252;-33.992;18.480;2023-02-24T03:45:54;12.63;;;2.10;;
37379;SDS011;23252;-33.992;18.480;2023-02-24T03:50:49;9.30;;;1.60;;
37379;SDS011;23252;-33.992;18.480;2023-02-24T03:59:16;9.10;;;2.10;;
37379;SDS011;23252;-33.992;18.480;2023-02-24T04:02:00;8.60;;;1.77;;
37379;SDS011;23252;-33.992;18.480;2023-02-24T04:04:36;5.60;;;1.70;;
37379;SDS011;23252;-33.992;18.480;2023-02-24T04:10:07;10.35;;;1.83;;
37379;SDS011;23252;-33.992;18.480;2023-02-24T04:12:49;8.38;;;2.53;;
37379;SDS011;23252;-33.992;18.480;2023-02-24T04:18:17;6.65;;;2.42;;
37379;SDS011;23252;-33.992;18.480;2023-02-24T04:20:47;7.95;;;2.00;;
37379;SDS011;23252;-33.992;18.480;2023-02-24T04:23:19;8.32;;;2.17;;
37379;SDS011;23252;-33.992;18.480;2023-02-24T04:25:53;14.30;;;3.00;;
37379;SDS011;23252;-33.992;18.480;2023-02-24T04:28:20;10.02;;;2.65;;
37379;SDS011;23252;-33.992;18.480;2023-02-24T04:30:49;10.32;;;2.47;;
37379;SDS011;23252;-33.992;18.480;2023-02-24T04:33:19;11.57;;;2.10;;
37379;SDS011;23252;-33.992;18.480;2023-02-24T04:35:47;10.18;;;2.35;;
37379;SDS011;23252;-33.992;18.480;2023-02-24T04:38:17;11.75;;;2.25;;
37379;SDS011;23252;-33.992;18.480;2023-02-24T04:43:10;10.82;;;2.40;;
37379;SDS011;23252;-33.992;18.480;2023-02-24T04:45:37;13.32;;;2.60;;
37379;SDS011;23252;-33.992;18.480;2023-02-24T04:48:04;13.10;;;2.63;;
37379;SDS011;23252;-33.992;18.480;2023-02-24T04:50:37;8.85;;;2.63;;
37379;SDS011;23252;-33.992;18.480;2023-02-24T04:53:08;9.73;;;2.72;;
37379;SDS011;23252;-33.992;18.480;2023-02-24T04:55:37;9.35;;;2.53;;
37379;SDS011;23252;-33.992;18.480;2023-02-24T04:58:11;8.75;;;2.28;;
37379;SDS011;23252;-33.992;18.480;2023-02-24T05:00:43;11.38;;;2.40;;
37379;SDS011;23252;-33.992;18.480;2023-02-24T05:03:16;10.30;;;2.75;;
37379;SDS011;23252;-33.992;18.480;2023-02-24T05:05:50;11.43;;;3.08;;
37379;SDS011;23252;-33.992;18.480;2023-02-24T05:08:53;9.60;;;3.30;;
37379;SDS011;23252;-33.992;18.480;2023-02-24T05:11:22;11.50;;;2.65;;
37379;SDS011;23252;-33.992;18.480;2023-02-24T05:13:59;14.15;;;2.67;;
37379;SDS011;23252;-33.992;18.480;2023-02-24T05:16:28;8.55;;;1.98;;
37379;SDS011;23252;-33.992;18.480;2023-02-24T05:18:55;11.50;;;2.00;;
37379;SDS011;23252;-33.992;18.480;2023-02-24T05:21:39;14.50;;;2.40;;
37379;SDS011;23252;-33.992;18.480;2023-02-24T05:24:06;10.98;;;1.83;;
37379;SDS011;23252;-33.992;18.480;2023-02-24T05:26:36;8.88;;;1.90;;
37379;SDS011;23252;-33.992;18.480;2023-02-24T05:29:12;9.43;;;1.63;;
37379;SDS011;23252;-33.992;18.480;2023-02-24T05:31:38;9.02;;;1.77;;
37379;SDS011;23252;-33.992;18.480;2023-02-24T05:34:06;6.25;;;1.83;;
37379;SDS011;23252;-33.992;18.480;2023-02-24T05:36:36;9.43;;;1.90;;
37379;SDS011;23252;-33.992;18.480;2023-02-24T05:39:10;8.30;;;1.92;;
37379;SDS011;23252;-33.992;18.480;2023-02-24T05:41:43;6.35;;;1.52;;
37379;SDS011;23252;-33.992;18.480;2023-02-24T05:44:16;9.43;;;1.60;;
37379;SDS011;23252;-33.992;18.480;2023-02-24T05:46:51;10.80;;;2.30;;
37379;SDS011;23252;-33.992;18.480;2023-02-24T05:49:31;7.78;;;1.80;;
37379;SDS011;23252;-33.992;18.480;2023-02-24T05:52:00;11.30;;;2.00;;
37379;SDS011;23252;-33.992;18.480;2023-02-24T05:54:37;8.93;;;1.60;;
37379;SDS011;23252;-33.992;18.480;2023-02-24T05:57:07;13.20;;;3.13;;
37379;SDS011;23252;-33.992;18.480;2023-02-24T05:59:40;8.65;;;2.22;;
37379;SDS011;23252;-33.992;18.480;2023-02-24T06:02:12;10.52;;;2.00;;
37379;SDS011;23252;-33.992;18.480;2023-02-24T06:04:40;10.02;;;2.15;;
37379;SDS011;23252;-33.992;18.480;2023-02-24T06:07:23;9.27;;;2.42;;
37379;SDS011;23252;-33.992;18.480;2023-02-24T10:30:33;6.13;;;1.00;;
37379;SDS011;23252;-33.992;18.480;2023-02-24T10:33:18;5.68;;;0.93;;
37379;SDS011;23252;-33.992;18.480;2023-02-24T10:36:09;3.65;;;0.93;;
37379;SDS011;23252;-33.992;18.480;2023-02-24T10:38:37;6.30;;;1.08;;
37379;SDS011;23252;-33.992;18.480;2023-02-24T10:41:14;5.35;;;0.90;;
37379;SDS011;23252;-33.992;18.480;2023-02-24T10:43:52;7.22;;;1.15;;
37379;SDS011;23252;-33.992;18.480;2023-02-24T10:46:25;3.83;;;0.82;;
37379;SDS011;23252;-33.992;18.480;2023-02-24T10:48:58;4.18;;;0.63;;
37379;SDS011;23252;-33.992;18.480;2023-02-24T10:51:38;6.70;;;1.10;;
37379;SDS011;23252;-33.992;18.480;2023-02-24T10:57:01;3.42;;;0.90;;
37379;SDS011;23252;-33.992;18.480;2023-02-24T10:59:46;7.53;;;1.23;;
37379;SDS011;23252;-33.992;18.480;2023-02-24T11:02:45;8.27;;;1.15;;
37379;SDS011;23252;-33.992;18.480;2023-02-24T11:05:40;6.43;;;1.23;;
37379;SDS011;23252;-33.992;18.480;2023-02-24T11:08:26;5.40;;;0.75;;
37379;SDS011;23252;-33.992;18.480;2023-02-24T11:11:28;10.77;;;1.40;;
37379;SDS011;23252;-33.992;18.480;2023-02-24T11:14:18;8.80;;;1.13;;
37379;SDS011;23252;-33.992;18.480;2023-02-24T11:17:04;6.53;;;1.45;;
37379;SDS011;23252;-33.992;18.480;2023-02-24T11:19:54;16.95;;;2.58;;
37379;SDS011;23252;-33.992;18.480;2023-02-24T11:22:35;6.57;;;1.40;;
37379;SDS011;23252;-33.992;18.480;2023-02-24T11:25:06;15.40;;;1.98;;
37379;SDS011;23252;-33.992;18.480;2023-02-24T11:27:50;9.63;;;1.10;;
37379;SDS011;23252;-33.992;18.480;2023-02-24T11:41:13;6.68;;;1.40;;
37379;SDS011;23252;-33.992;18.480;2023-02-24T11:43:42;4.18;;;0.68;;
37379;SDS011;23252;-33.992;18.480;2023-02-24T11:46:19;10.23;;;1.02;;
37379;SDS011;23252;-33.992;18.480;2023-02-24T11:48:51;6.68;;;0.75;;
37379;SDS011;23252;-33.992;18.480;2023-02-24T11:51:23;6.60;;;1.35;;
37379;SDS011;23252;-33.992;18.480;2023-02-24T11:53:55;4.75;;;0.93;;
37379;SDS011;23252;-33.992;18.480;2023-02-24T11:59:08;5.57;;;0.77;;
37379;SDS011;23252;-33.992;18.480;2023-02-24T12:04:52;8.93;;;1.85;;
37379;SDS011;23252;-33.992;18.480;2023-02-24T12:07:37;4.22;;;0.88;;
37379;SDS011;23252;-33.992;18.480;2023-02-24T12:13:35;6.22;;;0.95;;
37379;SDS011;23252;-33.992;18.480;2023-02-24T12:16:17;8.93;;;0.95;;
37379;SDS011;23252;-33.992;18.480;2023-02-24T12:18:58;3.83;;;1.00;;
37379;SDS011;23252;-33.992;18.480;2023-02-24T12:21:34;5.28;;;1.25;;
37379;SDS011;23252;-33.992;18.480;2023-02-24T12:24:07;6.07;;;0.98;;
37379;SDS011;23252;-33.992;18.480;2023-02-24T12:32:23;2.75;;;0.90;;
37379;SDS011;23252;-33.992;18.480;2023-02-24T12:35:14;6.28;;;1.08;;
37379;SDS011;23252;-33.992;18.480;2023-02-24T12:41:22;3.72;;;1.58;;
37379;SDS011;23252;-33.992;18.480;2023-02-24T12:46:36;2.97;;;0.75;;
37379;SDS011;23252;-33.992;18.480;2023-02-24T13:03:35;4.90;;;0.98;;
37379;SDS011;23252;-33.992;18.480;2023-02-24T13:06:36;6.13;;;0.73;;
37379;SDS011;23252;-33.992;18.480;2023-02-24T13:09:26;5.45;;;0.88;;
37379;SDS011;23252;-33.992;18.480;2023-02-24T13:12:33;4.43;;;0.70;;
37379;SDS011;23252;-33.992;18.480;2023-02-24T13:15:23;3.20;;;0.85;;
37379;SDS011;23252;-33.992;18.480;2023-02-24T13:17:52;4.63;;;0.88;;
37379;SDS011;23252;-33.992;18.480;2023-02-24T13:23:03;3.85;;;0.90;;
37379;SDS011;23252;-33.992;18.480;2023-02-24T13:25:49;2.92;;;0.50;;
37379;SDS011;23252;-33.992;18.480;2023-02-24T13:31:03;3.50;;;0.50;;
37379;SDS011;23252;-33.992;18.480;2023-02-24T13:33:36;2.00;;;0.50;;
37379;SDS011;23252;-33.992;18.480;2023-02-24T13:36:09;5.53;;;1.15;;
37379;SDS011;23252;-33.992;18.480;2023-02-24T13:38:41;6.18;;;0.93;;
37379;SDS011;23252;-33.992;18.480;2023-02-24T13:43:51;5.93;;;1.05;;
37379;SDS011;23252;-33.992;18.480;2023-02-24T13:46:45;4.95;;;0.93;;
37379;SDS011;23252;-33.992;18.480;2023-02-24T13:52:35;7.43;;;0.85;;
37379;SDS011;23252;-33.992;18.480;2023-02-24T14:03:29;3.80;;;0.60;;
37379;SDS011;23252;-33.992;18.480;2023-02-24T14:08:42;6.60;;;0.88;;
37379;SDS011;23252;-33.992;18.480;2023-02-24T14:11:12;5.85;;;0.55;;
37379;SDS011;23252;-33.992;18.480;2023-02-24T14:13:43;3.33;;;1.10;;
37379;SDS011;23252;-33.992;18.480;2023-02-24T14:16:15;5.63;;;0.93;;
37379;SDS011;23252;-33.992;18.480;2023-02-24T14:19:05;5.30;;;1.10;;
37379;SDS011;23252;-33.992;18.480;2023-02-24T14:21:48;4.93;;;0.93;;
37379;SDS011;23252;-33.992;18.480;2023-02-24T14:24:17;1.40;;;0.50;;
37379;SDS011;23252;-33.992;18.480;2023-02-24T14:26:52;5.65;;;0.80;;
37379;SDS011;23252;-33.992;18.480;2023-02-24T14:29:21;6.15;;;0.70;;
37379;SDS011;23252;-33.992;18.480;2023-02-24T14:31:56;4.65;;;0.95;;
37379;SDS011;23252;-33.992;18.480;2023-02-24T14:34:24;4.20;;;1.00;;
37379;SDS011;23252;-33.992;18.480;2023-02-24T14:36:53;6.53;;;1.10;;
37379;SDS011;23252;-33.992;18.480;2023-02-24T14:39:29;3.63;;;0.77;;
37379;SDS011;23252;-33.992;18.480;2023-02-24T14:44:32;3.63;;;0.55;;
37379;SDS011;23252;-33.992;18.480;2023-02-24T14:47:08;4.97;;;1.10;;
37379;SDS011;23252;-33.992;18.480;2023-02-24T14:49:35;2.05;;;0.70;;
37379;SDS011;23252;-33.992;18.480;2023-02-24T14:52:04;7.13;;;0.95;;
37379;SDS011;23252;-33.992;18.480;2023-02-24T14:54:44;4.72;;;0.90;;
37379;SDS011;23252;-33.992;18.480;2023-02-24T14:57:26;5.10;;;1.40;;
37379;SDS011;23252;-33.992;18.480;2023-02-24T14:59:58;6.18;;;0.82;;
37379;SDS011;23252;-33.992;18.480;2023-02-24T15:02:43;2.87;;;0.77;;
37379;SDS011;23252;-33.992;18.480;2023-02-24T15:05:15;2.75;;;0.70;;
37379;SDS011;23252;-33.992;18.480;2023-02-24T15:07:43;5.57;;;0.82;;
37379;SDS011;23252;-33.992;18.480;2023-02-24T15:10:20;5.45;;;1.15;;
37379;SDS011;23252;-33.992;18.480;2023-02-24T15:12:54;4.05;;;1.13;;
37379;SDS011;23252;-33.992;18.480;2023-02-24T15:15:35;7.18;;;1.30;;
37379;SDS011;23252;-33.992;18.480;2023-02-24T15:18:24;4.20;;;0.93;;
37379;SDS011;23252;-33.992;18.480;2023-02-24T15:21:02;4.90;;;0.77;;
37379;SDS011;23252;-33.992;18.480;2023-02-24T15:23:35;4.03;;;0.80;;
37379;SDS011;23252;-33.992;18.480;2023-02-24T15:26:05;5.88;;;1.63;;
37379;SDS011;23252;-33.992;18.480;2023-02-24T15:28:35;3.55;;;0.70;;
37379;SDS011;23252;-33.992;18.480;2023-02-24T15:33:36;3.53;;;0.98;;
37379;SDS011;23252;-33.992;18.480;2023-02-24T15:36:14;2.05;;;0.93;;
37379;SDS011;23252;-33.992;18.480;2023-02-24T15:38:44;4.93;;;1.00;;
37379;SDS011;23252;-33.992;18.480;2023-02-24T15:41:12;2.75;;;0.70;;
37379;SDS011;23252;-33.992;18.480;2023-02-24T15:43:47;4.20;;;0.95;;
37379;SDS011;23252;-33.992;18.480;2023-02-24T15:48:47;4.55;;;1.25;;
37379;SDS011;23252;-33.992;18.480;2023-02-24T15:53:54;4.25;;;0.73;;
37379;SDS011;23252;-33.992;18.480;2023-02-24T15:56:20;4.20;;;1.00;;
37379;SDS011;23252;-33.992;18.480;2023-02-24T15:58:47;4.45;;;1.13;;
37379;SDS011;23252;-33.992;18.480;2023-02-24T16:01:13;3.13;;;0.60;;
37379;SDS011;23252;-33.992;18.480;2023-02-24T16:03:40;2.10;;;0.88;;
37379;SDS011;23252;-33.992;18.480;2023-02-24T16:08:38;3.92;;;0.90;;
37379;SDS011;23252;-33.992;18.480;2023-02-24T16:11:09;6.72;;;1.10;;
37379;SDS011;23252;-33.992;18.480;2023-02-24T16:13:36;4.35;;;0.88;;
37379;SDS011;23252;-33.992;18.480;2023-02-24T18:14:04;10.70;;;2.42;;
37379;SDS011;23252;-33.992;18.480;2023-02-24T18:16:30;11.98;;;2.58;;
37379;SDS011;23252;-33.992;18.480;2023-02-24T18:18:58;9.40;;;2.28;;
37379;SDS011;23252;-33.992;18.480;2023-02-24T18:23:50;13.45;;;2.83;;
37379;SDS011;23252;-33.992;18.480;2023-02-24T18:26:20;16.63;;;2.65;;
37379;SDS011;23252;-33.992;18.480;2023-02-24T18:28:46;16.42;;;2.83;;
37379;SDS011;23252;-33.992;18.480;2023-02-24T18:31:17;12.07;;;2.97;;
37379;SDS011;23252;-33.992;18.480;2023-02-24T18:33:45;19.33;;;2.90;;
37379;SDS011;23252;-33.992;18.480;2023-02-24T18:36:12;15.23;;;2.47;;
37379;SDS011;23252;-33.992;18.480;2023-02-24T18:38:38;14.13;;;2.88;;
37379;SDS011;23252;-33.992;18.480;2023-02-24T18:41:10;17.58;;;2.95;;
37379;SDS011;23252;-33.992;18.480;2023-02-24T18:43:42;15.38;;;3.03;;
37379;SDS011;23252;-33.992;18.480;2023-02-24T18:46:13;12.70;;;2.95;;
37379;SDS011;23252;-33.992;18.480;2023-02-24T18:48:40;18.17;;;3.28;;
37379;SDS011;23252;-33.992;18.480;2023-02-24T18:51:17;14.73;;;3.38;;
37379;SDS011;23252;-33.992;18.480;2023-02-24T18:53:48;17.95;;;4.20;;
37379;SDS011;23252;-33.992;18.480;2023-02-24T18:56:16;12.15;;;3.33;;
37379;SDS011;23252;-33.992;18.480;2023-02-24T18:58:46;14.77;;;3.55;;
37379;SDS011;23252;-33.992;18.480;2023-02-24T19:01:30;17.00;;;2.75;;
37379;SDS011;23252;-33.992;18.480;2023-02-24T19:03:59;15.32;;;3.10;;
37379;SDS011;23252;-33.992;18.480;2023-02-24T19:06:27;15.52;;;3.40;;
37379;SDS011;23252;-33.992;18.480;2023-02-24T19:08:57;23.23;;;3.13;;
37379;SDS011;23252;-33.992;18.480;2023-02-24T19:11:37;18.38;;;3.05;;
37379;SDS011;23252;-33.992;18.480;2023-02-24T19:14:05;20.08;;;3.10;;
37379;SDS011;23252;-33.992;18.480;2023-02-24T19:16:32;16.50;;;3.63;;
37379;SDS011;23252;-33.992;18.480;2023-02-24T19:18:59;21.38;;;3.70;;
37379;SDS011;23252;-33.992;18.480;2023-02-24T19:21:28;26.10;;;3.20;;
37379;SDS011;23252;-33.992;18.480;2023-02-24T19:24:00;15.27;;;2.75;;
37379;SDS011;23252;-33.992;18.480;2023-02-24T19:26:28;14.85;;;2.72;;
37379;SDS011;23252;-33.992;18.480;2023-02-24T19:28:55;20.23;;;2.85;;
37379;SDS011;23252;-33.992;18.480;2023-02-24T19:31:24;22.35;;;3.47;;
37379;SDS011;23252;-33.992;18.480;2023-02-24T19:33:52;14.43;;;3.20;;
37379;SDS011;23252;-33.992;18.480;2023-02-24T19:36:20;15.80;;;3.13;;
37379;SDS011;23252;-33.992;18.480;2023-02-24T19:38:47;15.55;;;3.05;;
37379;SDS011;23252;-33.992;18.480;2023-02-24T19:41:14;15.35;;;2.78;;
37379;SDS011;23252;-33.992;18.480;2023-02-24T19:43:41;15.82;;;2.88;;
37379;SDS011;23252;-33.992;18.480;2023-02-24T19:46:08;21.25;;;3.00;;
37379;SDS011;23252;-33.992;18.480;2023-02-24T19:48:36;18.23;;;3.38;;
37379;SDS011;23252;-33.992;18.480;2023-02-24T19:51:10;16.65;;;2.90;;
37379;SDS011;23252;-33.992;18.480;2023-02-24T19:53:42;18.00;;;2.67;;
37379;SDS011;23252;-33.992;18.480;2023-02-24T19:56:09;13.80;;;3.08;;
37379;SDS011;23252;-33.992;18.480;2023-02-24T19:58:35;17.98;;;2.75;;
37379;SDS011;23252;-33.992;18.480;2023-02-24T20:01:09;15.90;;;2.50;;
37379;SDS011;23252;-33.992;18.480;2023-02-24T20:03:37;13.77;;;2.67;;
37379;SDS011;23252;-33.992;18.480;2023-02-24T20:06:06;18.95;;;3.08;;
37379;SDS011;23252;-33.992;18.480;2023-02-24T20:08:51;15.93;;;2.95;;
37379;SDS011;23252;-33.992;18.480;2023-02-24T20:11:18;19.67;;;3.15;;
37379;SDS011;23252;-33.992;18.480;2023-02-24T20:16:13;15.77;;;3.28;;
37379;SDS011;23252;-33.992;18.480;2023-02-24T20:18:42;11.95;;;2.55;;
37379;SDS011;23252;-33.992;18.480;2023-02-24T20:21:09;14.85;;;2.45;;
37379;SDS011;23252;-33.992;18.480;2023-02-24T20:23:37;17.63;;;3.20;;
37379;SDS011;23252;-33.992;18.480;2023-02-24T20:26:04;16.65;;;2.58;;
37379;SDS011;23252;-33.992;18.480;2023-02-24T20:28:31;16.17;;;2.83;;
37379;SDS011;23252;-33.992;18.480;2023-02-24T20:30:58;11.98;;;2.20;;
37379;SDS011;23252;-33.992;18.480;2023-02-24T20:33:38;15.07;;;3.20;;
37379;SDS011;23252;-33.992;18.480;2023-02-24T20:36:09;14.98;;;2.28;;
37379;SDS011;23252;-33.992;18.480;2023-02-24T20:38:43;14.85;;;2.92;;
37379;SDS011;23252;-33.992;18.480;2023-02-24T20:41:13;15.40;;;2.25;;
37379;SDS011;23252;-33.992;18.480;2023-02-24T20:43:43;17.75;;;3.05;;
37379;SDS011;23252;-33.992;18.480;2023-02-24T20:46:14;14.93;;;2.53;;
37379;SDS011;23252;-33.992;18.480;2023-02-24T20:48:43;13.00;;;2.25;;
37379;SDS011;23252;-33.992;18.480;2023-02-24T20:51:10;15.57;;;1.95;;
37379;SDS011;23252;-33.992;18.480;2023-02-24T20:56:05;11.93;;;2.47;;
37379;SDS011;23252;-33.992;18.480;2023-02-24T20:58:52;12.13;;;1.85;;
37379;SDS011;23252;-33.992;18.480;2023-02-24T21:01:24;17.55;;;2.33;;
37379;SDS011;23252;-33.992;18.480;2023-02-24T21:03:51;16.70;;;2.30;;
37379;SDS011;23252;-33.992;18.480;2023-02-24T21:06:17;14.75;;;2.17;;
37379;SDS011;23252;-33.992;18.480;2023-02-24T21:08:44;7.57;;;2.00;;
37379;SDS011;23252;-33.992;18.480;2023-02-24T21:11:11;13.05;;;2.55;;
37379;SDS011;23252;-33.992;18.480;2023-02-24T21:13:38;12.23;;;2.22;;
37379;SDS011;23252;-33.992;18.480;2023-02-24T21:16:07;17.77;;;2.55;;
37379;SDS011;23252;-33.992;18.480;2023-02-24T21:18:34;15.13;;;1.75;;
37379;SDS011;23252;-33.992;18.480;2023-02-24T21:21:03;17.02;;;2.70;;
37379;SDS011;23252;-33.992;18.480;2023-02-24T21:23:30;11.57;;;2.38;;
37379;SDS011;23252;-33.992;18.480;2023-02-24T21:25:57;14.85;;;2.72;;
37379;SDS011;23252;-33.992;18.480;2023-02-24T21:28:24;18.77;;;2.50;;
37379;SDS011;23252;-33.992;18.480;2023-02-24T21:30:51;19.65;;;3.13;;
37379;SDS011;23252;-33.992;18.480;2023-02-24T21:33:21;14.27;;;2.35;;
37379;SDS011;23252;-33.992;18.480;2023-02-24T21:35:59;21.40;;;2.85;;
37379;SDS011;23252;-33.992;18.480;2023-02-24T21:38:28;14.07;;;2.63;;
37379;SDS011;23252;-33.992;18.480;2023-02-24T21:41:01;19.20;;;3.08;;
37379;SDS011;23252;-33.992;18.480;2023-02-24T21:43:29;16.45;;;2.88;;
37379;SDS011;23252;-33.992;18.480;2023-02-24T21:45:59;18.98;;;3.20;;
37379;SDS011;23252;-33.992;18.480;2023-02-24T21:48:29;15.77;;;3.05;;
37379;SDS011;23252;-33.992;18.480;2023-02-24T21:51:00;20.60;;;3.05;;
37379;SDS011;23252;-33.992;18.480;2023-02-24T21:53:28;21.40;;;3.38;;
37379;SDS011;23252;-33.992;18.480;2023-02-24T21:56:02;22.48;;;3.67;;
37379;SDS011;23252;-33.992;18.480;2023-02-24T21:58:29;22.40;;;3.75;;
37379;SDS011;23252;-33.992;18.480;2023-02-24T22:00:57;16.52;;;3.30;;
37379;SDS011;23252;-33.992;18.480;2023-02-24T22:03:23;19.92;;;3.10;;
37379;SDS011;23252;-33.992;18.480;2023-02-24T22:05:50;28.58;;;4.07;;
37379;SDS011;23252;-33.992;18.480;2023-02-24T22:08:18;26.42;;;4.20;;
37379;SDS011;23252;-33.992;18.480;2023-02-24T22:10:44;18.42;;;3.42;;
